createdAt,value
2022-10-23T00:01:47.622Z,12.10
2022-10-23T00:04:25.510Z,11.90
2022-10-23T00:06:53.454Z,12.80
2022-10-23T00:09:24.797Z,12.50
2022-10-23T00:11:53.758Z,12.90
2022-10-23T00:14:25.181Z,11.80
2022-10-23T00:16:53.190Z,13.40
2022-10-23T00:19:20.993Z,12.40
2022-10-23T00:21:48.852Z,13.40
2022-10-23T00:24:16.603Z,13.40
2022-10-23T00:26:44.469Z,13.20
2022-10-23T00:29:12.310Z,13.20
2022-10-23T00:31:40.010Z,12.70
2022-10-23T00:34:08.872Z,14.70
2022-10-23T00:36:37.557Z,12.90
2022-10-23T00:39:05.597Z,11.10
2022-10-23T00:41:33.532Z,13.10
2022-10-23T00:44:04.398Z,13.50
2022-10-23T00:46:33.630Z,18.50
2022-10-23T00:49:02.662Z,14.10
2022-10-23T00:51:39.222Z,13.60
2022-10-23T00:54:25.038Z,15.10
2022-10-23T00:57:00.438Z,15.20
2022-10-23T00:59:30.050Z,14.10
2022-10-23T01:01:59.137Z,14.50
2022-10-23T01:04:28.348Z,12.40
2022-10-23T01:07:57.035Z,13.70
2022-10-23T01:10:52.550Z,12.30
2022-10-23T01:13:53.948Z,16.10
2022-10-23T01:17:11.487Z,15.20
2022-10-23T01:20:01.510Z,15.40
2022-10-23T01:23:10.317Z,15.70
2022-10-23T01:26:18.728Z,14.10
2022-10-23T01:29:05.013Z,14.70
2022-10-23T01:32:01.608Z,14.50
2022-10-23T01:35:01.422Z,13.80
2022-10-23T01:37:53.210Z,15.60
2022-10-23T01:40:31.362Z,17.70
2022-10-23T01:43:08.442Z,16.20
2022-10-23T01:45:46.096Z,14.70
2022-10-23T01:48:21.541Z,18.50
2022-10-23T01:50:53.354Z,14.70
2022-10-23T01:53:23.835Z,16.90
2022-10-23T01:55:52.623Z,16.50
2022-10-23T01:58:23.034Z,17.70
2022-10-23T02:00:54.958Z,18.90
2022-10-23T02:03:24.745Z,18.50
2022-10-23T02:05:52.575Z,18.70
2022-10-23T02:08:20.539Z,20.00
2022-10-23T02:11:00.766Z,18.20
2022-10-23T02:13:45.246Z,17.70
2022-10-23T02:16:36.753Z,17.80
2022-10-23T02:19:25.289Z,20.40
2022-10-23T02:22:11.594Z,16.70
2022-10-23T02:24:58.498Z,17.70
2022-10-23T02:27:40.121Z,23.80
2022-10-23T02:30:15.047Z,20.20
2022-10-23T02:32:50.165Z,19.20
2022-10-23T02:35:22.511Z,18.70
2022-10-23T02:38:01.618Z,18.70
2022-10-23T02:40:45.789Z,20.10
2022-10-23T02:43:24.662Z,18.50
2022-10-23T02:46:20.679Z,17.50
2022-10-23T02:49:11.421Z,17.50
2022-10-23T02:51:58.200Z,18.60
2022-10-23T02:54:55.258Z,20.50
2022-10-23T02:57:33.534Z,17.60
2022-10-23T03:00:11.698Z,19.40
2022-10-23T03:02:59.025Z,20.20
2022-10-23T03:05:34.456Z,18.70
2022-10-23T03:08:10.552Z,19.00
2022-10-23T03:10:38.838Z,17.40
2022-10-23T03:13:07.915Z,16.80
2022-10-23T03:15:35.779Z,18.40
2022-10-23T03:18:03.735Z,19.50
2022-10-23T03:20:31.542Z,19.50
2022-10-23T03:22:59.270Z,16.20
2022-10-23T03:25:27.615Z,18.10
2022-10-23T03:27:55.329Z,19.60
2022-10-23T03:30:23.078Z,19.10
2022-10-23T03:32:51.082Z,20.70
2022-10-23T03:35:18.795Z,18.00
2022-10-23T03:37:46.470Z,17.20
2022-10-23T03:40:14.316Z,19.60
2022-10-23T03:42:42.007Z,21.20
2022-10-23T03:45:10.132Z,14.60
2022-10-23T03:47:41.520Z,17.10
2022-10-23T03:50:11.214Z,17.80
2022-10-23T03:52:39.754Z,16.50
2022-10-23T03:55:08.634Z,14.80
2022-10-23T03:57:36.561Z,19.10
2022-10-23T04:00:06.841Z,19.70
2022-10-23T04:02:34.745Z,18.90
2022-10-23T04:05:02.581Z,14.70
2022-10-23T04:07:30.272Z,16.60
2022-10-23T04:09:57.981Z,15.80
2022-10-23T04:12:25.709Z,16.80
2022-10-23T04:14:53.446Z,18.00
2022-10-23T04:17:21.243Z,17.60
2022-10-23T04:19:48.997Z,18.00
2022-10-23T04:22:16.720Z,19.30
2022-10-23T04:24:46.901Z,15.30
2022-10-23T04:27:15.163Z,19.10
2022-10-23T04:29:42.852Z,18.80
2022-10-23T04:32:10.528Z,17.30
2022-10-23T04:34:38.233Z,13.80
2022-10-23T04:37:05.904Z,17.00
2022-10-23T04:39:33.608Z,14.80
2022-10-23T04:42:01.364Z,17.50
2022-10-23T04:44:29.063Z,18.40
2022-10-23T04:46:56.802Z,17.20
2022-10-23T04:49:24.491Z,18.00
2022-10-23T04:51:52.224Z,17.50
2022-10-23T04:54:19.999Z,18.50
2022-10-23T04:56:47.734Z,20.20
2022-10-23T04:59:15.470Z,19.10
2022-10-23T05:01:43.507Z,16.70
2022-10-23T05:04:11.283Z,19.70
2022-10-23T05:06:39.024Z,21.00
2022-10-23T05:09:06.768Z,23.50
2022-10-23T05:11:34.455Z,22.30
2022-10-23T05:14:02.143Z,20.80
2022-10-23T05:16:48.369Z,23.10
2022-10-23T05:19:26.491Z,22.70
2022-10-23T05:21:56.167Z,18.60
2022-10-23T05:24:26.132Z,19.70
2022-10-23T05:26:54.255Z,20.30
2022-10-23T05:29:22.438Z,23.50
2022-10-23T05:31:57.168Z,24.40
2022-10-23T05:34:28.297Z,24.00
2022-10-23T05:36:56.963Z,23.70
2022-10-23T05:39:24.847Z,25.60
2022-10-23T05:41:52.577Z,23.30
2022-10-23T05:44:20.459Z,22.40
2022-10-23T05:46:48.156Z,19.30
2022-10-23T05:49:16.037Z,20.40
2022-10-23T05:51:43.753Z,26.10
2022-10-23T05:54:11.579Z,20.30
2022-10-23T05:56:43.417Z,22.70
2022-10-23T05:59:11.251Z,25.80
2022-10-23T06:01:39.136Z,20.30
2022-10-23T06:04:07.120Z,19.10
2022-10-23T06:06:36.874Z,18.70
2022-10-23T06:09:04.943Z,17.70
2022-10-23T06:11:32.731Z,18.40
2022-10-23T06:14:01.240Z,18.50
2022-10-23T06:16:29.515Z,16.80
2022-10-23T06:18:57.659Z,17.90
2022-10-23T06:21:25.335Z,15.80
2022-10-23T06:23:53.133Z,18.10
2022-10-23T06:26:21.235Z,16.90
2022-10-23T06:28:49.020Z,17.60
2022-10-23T06:31:19.350Z,18.50
2022-10-23T06:33:47.164Z,18.40
2022-10-23T06:36:14.824Z,17.20
2022-10-23T06:38:42.684Z,21.20
2022-10-23T06:41:19.784Z,20.00
2022-10-23T06:43:50.615Z,22.40
2022-10-23T06:46:20.069Z,23.90
2022-10-23T06:48:48.490Z,22.10
2022-10-23T06:51:17.577Z,22.00
2022-10-23T06:53:46.314Z,21.80
2022-10-23T06:56:14.189Z,23.70
2022-10-23T06:58:42.552Z,23.60
2022-10-23T07:01:13.599Z,23.50
2022-10-23T07:03:41.858Z,23.90
2022-10-23T07:06:11.828Z,22.10
2022-10-23T07:08:40.146Z,25.40
2022-10-23T07:11:10.775Z,23.70
2022-10-23T07:13:40.679Z,22.10
2022-10-23T07:16:25.895Z,23.00
2022-10-23T07:19:01.144Z,22.80
2022-10-23T07:21:35.414Z,21.50
2022-10-23T07:24:04.556Z,20.40
2022-10-23T07:26:33.142Z,21.70
2022-10-23T07:29:01.064Z,22.10
2022-10-23T07:31:29.648Z,23.70
2022-10-23T07:33:57.595Z,18.70
2022-10-23T07:36:25.511Z,19.50
2022-10-23T07:38:53.484Z,20.20
2022-10-23T07:41:21.637Z,20.60
2022-10-23T07:43:49.738Z,18.20
2022-10-23T07:46:17.761Z,17.70
2022-10-23T07:48:45.758Z,17.70
2022-10-23T07:51:16.376Z,16.60
2022-10-23T07:53:44.453Z,17.10
2022-10-23T07:56:15.990Z,17.90
2022-10-23T07:58:44.389Z,18.20
2022-10-23T08:01:27.359Z,13.60
2022-10-23T08:03:55.322Z,15.80
2022-10-23T08:06:23.340Z,12.80
2022-10-23T08:08:51.559Z,18.60
2022-10-23T08:11:26.498Z,13.80
2022-10-23T08:13:57.827Z,15.30
2022-10-23T08:16:26.413Z,15.10
2022-10-23T08:18:54.397Z,15.80
2022-10-23T08:21:22.290Z,15.50
2022-10-23T08:23:53.946Z,14.80
2022-10-23T08:26:23.327Z,13.20
2022-10-23T08:28:53.031Z,11.90
2022-10-23T08:31:22.849Z,14.70
2022-10-23T08:33:51.703Z,12.70
2022-10-23T08:36:23.264Z,13.80
2022-10-23T08:38:56.081Z,13.90
2022-10-23T08:41:43.066Z,12.40
2022-10-23T08:44:28.429Z,13.40
2022-10-23T08:47:12.429Z,13.70
2022-10-23T08:49:59.422Z,11.20
2022-10-23T08:52:37.794Z,10.10
2022-10-23T08:55:17.778Z,11.00
2022-10-23T08:58:01.329Z,12.50
2022-10-23T09:00:35.230Z,9.80
2022-10-23T09:03:06.020Z,10.80
2022-10-23T09:05:49.303Z,7.40
2022-10-23T09:08:58.822Z,10.60
2022-10-23T09:11:47.561Z,7.50
2022-10-23T09:14:57.691Z,8.00
2022-10-23T09:17:41.371Z,10.10
2022-10-23T09:20:20.858Z,9.10
2022-10-23T09:22:55.394Z,9.10
2022-10-23T09:25:28.209Z,8.10
2022-10-23T09:28:05.715Z,9.40
2022-10-23T09:30:39.214Z,8.00
2022-10-23T09:33:30.946Z,7.70
2022-10-23T09:36:20.472Z,6.00
2022-10-23T09:38:53.606Z,6.60
2022-10-23T09:41:38.523Z,5.80
2022-10-23T09:44:22.969Z,5.80
2022-10-23T09:47:13.186Z,7.40
2022-10-23T09:49:49.568Z,5.90
2022-10-23T09:52:18.010Z,6.00
2022-10-23T09:54:51.579Z,6.50
2022-10-23T09:57:36.017Z,5.60
2022-10-23T10:00:20.484Z,5.50
2022-10-23T10:03:00.494Z,3.80
2022-10-23T10:05:36.225Z,6.30
2022-10-23T10:08:34.715Z,4.30
2022-10-23T10:11:14.590Z,5.10
2022-10-23T10:14:36.247Z,3.80
2022-10-23T10:17:35.024Z,4.50
2022-10-23T10:20:24.399Z,4.70
2022-10-23T10:23:34.933Z,5.80
2022-10-23T10:26:37.356Z,4.70
2022-10-23T10:29:19.271Z,5.10
2022-10-23T10:32:14.172Z,4.40
2022-10-23T10:34:49.835Z,4.60
2022-10-23T10:38:10.742Z,4.40
2022-10-23T10:41:03.980Z,6.90
2022-10-23T10:43:53.017Z,5.80
2022-10-23T10:46:38.475Z,5.40
2022-10-23T10:49:18.053Z,4.60
2022-10-23T10:52:31.117Z,6.00
2022-10-23T10:55:19.044Z,5.60
2022-10-23T10:58:39.146Z,5.70
2022-10-23T11:01:36.999Z,5.40
2022-10-23T11:04:28.570Z,5.10
2022-10-23T11:07:07.078Z,5.50
2022-10-23T11:09:37.679Z,5.40
2022-10-23T11:12:05.830Z,6.50
2022-10-23T11:14:35.112Z,5.10
2022-10-23T11:17:27.525Z,5.80
2022-10-23T11:20:10.421Z,5.40
2022-10-23T11:22:56.250Z,6.00
2022-10-23T11:25:44.148Z,5.90
2022-10-23T11:28:56.038Z,6.00
2022-10-23T11:32:08.845Z,6.40
2022-10-23T11:35:25.252Z,7.20
2022-10-23T11:38:25.014Z,5.90
2022-10-23T11:41:01.551Z,7.60
2022-10-23T11:43:47.765Z,9.00
2022-10-23T11:46:38.276Z,7.70
2022-10-23T11:49:21.364Z,4.50
2022-10-23T11:52:05.526Z,6.50
2022-10-23T11:54:33.417Z,7.50
2022-10-23T11:57:10.262Z,5.90
2022-10-23T11:59:47.844Z,6.80
2022-10-23T12:02:36.954Z,8.00
2022-10-23T12:05:32.172Z,6.00
2022-10-23T12:08:02.559Z,8.20
2022-10-23T12:10:36.236Z,5.90
2022-10-23T12:13:39.145Z,7.40
2022-10-23T12:16:08.138Z,5.60
2022-10-23T12:18:53.301Z,6.10
2022-10-23T12:21:28.671Z,5.70
2022-10-23T12:24:24.904Z,6.80
2022-10-23T12:27:25.650Z,6.80
2022-10-23T12:30:19.279Z,7.10
2022-10-23T12:33:44.221Z,5.10
2022-10-23T12:36:49.427Z,5.00
2022-10-23T12:39:39.260Z,3.80
2022-10-23T12:42:21.176Z,5.00
2022-10-23T12:45:04.180Z,5.80
2022-10-23T12:47:32.607Z,5.10
2022-10-23T12:50:00.627Z,5.70
2022-10-23T12:52:28.660Z,4.60
2022-10-23T12:54:56.936Z,6.20
2022-10-23T12:57:28.453Z,4.90
2022-10-23T13:00:04.667Z,5.70
2022-10-23T13:02:34.701Z,5.40
2022-10-23T13:05:08.375Z,5.90
2022-10-23T13:07:44.686Z,5.00
2022-10-23T13:10:20.367Z,7.80
2022-10-23T13:12:59.954Z,5.80
2022-10-23T13:15:46.245Z,4.80
2022-10-23T13:18:16.986Z,4.30
2022-10-23T13:21:05.561Z,5.00
2022-10-23T13:23:35.663Z,6.20
2022-10-23T13:26:21.673Z,6.80
2022-10-23T13:28:50.652Z,5.40
2022-10-23T13:31:18.460Z,7.20
2022-10-23T13:34:06.271Z,6.80
2022-10-23T13:36:39.631Z,5.70
2022-10-23T13:39:10.649Z,5.10
2022-10-23T13:41:42.789Z,4.50
2022-10-23T13:44:14.862Z,5.50
2022-10-23T13:46:44.551Z,3.80
2022-10-23T13:49:12.565Z,2.80
2022-10-23T13:51:52.385Z,5.50
2022-10-23T13:57:00.579Z,4.90
2022-10-23T13:59:28.500Z,4.40
2022-10-23T14:01:56.460Z,4.90
2022-10-23T14:04:24.437Z,5.40
2022-10-23T14:06:58.591Z,4.20
2022-10-23T14:09:27.019Z,4.60
2022-10-23T14:11:54.893Z,4.80
2022-10-23T14:14:22.776Z,5.40
2022-10-23T14:16:52.873Z,4.50
2022-10-23T14:19:20.925Z,6.60
2022-10-23T14:21:48.822Z,5.10
2022-10-23T14:24:16.770Z,5.50
2022-10-23T14:26:44.710Z,5.50
2022-10-23T14:29:21.276Z,7.40
2022-10-23T14:31:52.370Z,5.50
2022-10-23T14:34:20.697Z,5.20
2022-10-23T14:36:56.724Z,5.30
2022-10-23T14:39:32.000Z,3.50
2022-10-23T14:41:59.858Z,5.50
2022-10-23T14:44:28.136Z,4.70
2022-10-23T14:46:56.249Z,4.00
2022-10-23T14:49:24.090Z,5.30
2022-10-23T14:51:51.954Z,5.70
2022-10-23T14:54:20.075Z,4.60
2022-10-23T14:56:48.395Z,5.60
2022-10-23T14:59:16.341Z,5.60
2022-10-23T15:01:48.260Z,6.10
2022-10-23T15:04:16.710Z,6.40
2022-10-23T15:06:46.553Z,5.70
2022-10-23T15:09:15.770Z,6.70
2022-10-23T15:11:43.841Z,4.90
2022-10-23T15:14:12.226Z,6.10
2022-10-23T15:16:43.492Z,6.10
2022-10-23T15:19:18.372Z,6.80
2022-10-23T15:21:48.605Z,8.00
2022-10-23T15:24:17.954Z,9.10
2022-10-23T15:26:46.173Z,6.70
2022-10-23T15:29:15.215Z,8.70
2022-10-23T15:31:57.161Z,6.30
2022-10-23T15:34:28.835Z,6.20
2022-10-23T15:36:58.665Z,7.00
2022-10-23T15:39:29.522Z,8.80
2022-10-23T15:41:57.652Z,5.50
2022-10-23T15:44:29.285Z,7.60
2022-10-23T15:46:58.326Z,9.00
2022-10-23T15:49:31.946Z,6.20
2022-10-23T15:52:00.519Z,6.50
2022-10-23T15:54:31.899Z,7.00
2022-10-23T15:57:02.753Z,8.10
2022-10-23T15:59:32.268Z,8.10
2022-10-23T16:02:00.574Z,7.90
2022-10-23T16:04:29.046Z,9.70
2022-10-23T16:06:57.232Z,8.20
2022-10-23T16:09:25.167Z,7.50
2022-10-23T16:11:53.079Z,9.20
2022-10-23T16:14:22.625Z,10.40
2022-10-23T16:16:53.052Z,9.30
2022-10-23T16:19:21.021Z,7.70
2022-10-23T16:21:49.072Z,9.20
2022-10-23T16:24:17.109Z,9.40
2022-10-23T16:26:50.481Z,10.80
2022-10-23T16:29:22.337Z,8.70
2022-10-23T16:31:53.082Z,8.70
2022-10-23T16:34:22.060Z,11.10
2022-10-23T16:36:50.093Z,11.70
2022-10-23T16:39:20.803Z,13.50
2022-10-23T16:41:49.160Z,11.90
2022-10-23T16:44:17.204Z,10.90
2022-10-23T16:46:45.196Z,13.40
2022-10-23T16:49:14.606Z,11.20
2022-10-23T16:51:42.525Z,12.50
2022-10-23T16:54:14.717Z,10.70
2022-10-23T16:56:43.619Z,11.00
2022-10-23T16:59:11.994Z,8.60
2022-10-23T17:01:40.754Z,10.40
2022-10-23T17:04:08.914Z,14.10
2022-10-23T17:06:37.697Z,10.20
2022-10-23T17:09:06.374Z,9.60
2022-10-23T17:11:40.538Z,9.80
2022-10-23T17:14:19.924Z,12.10
2022-10-23T17:16:51.632Z,11.00
2022-10-23T17:19:45.040Z,14.10
2022-10-23T17:22:14.819Z,11.60
2022-10-23T17:24:46.376Z,14.70
2022-10-23T17:27:17.254Z,11.30
2022-10-23T17:29:45.248Z,9.10
2022-10-23T17:32:13.336Z,9.20
2022-10-23T17:34:41.380Z,12.50
2022-10-23T17:37:10.383Z,11.30
2022-10-23T17:39:38.237Z,10.80
2022-10-23T17:42:06.099Z,14.40
2022-10-23T17:44:34.269Z,12.20
2022-10-23T17:47:02.259Z,12.10
2022-10-23T17:49:30.158Z,12.00
2022-10-23T17:52:00.395Z,10.10
2022-10-23T17:54:28.625Z,11.30
2022-10-23T17:56:56.954Z,11.90
2022-10-23T17:59:24.931Z,12.50
2022-10-23T18:01:56.307Z,11.10
2022-10-23T18:04:25.201Z,12.30
2022-10-23T18:07:01.089Z,14.40
2022-10-23T18:09:28.990Z,15.50
2022-10-23T18:11:57.238Z,15.80
2022-10-23T18:14:27.339Z,15.90
2022-10-23T18:16:57.459Z,16.50
2022-10-23T18:19:25.374Z,19.50
2022-10-23T18:21:53.342Z,16.10
2022-10-23T18:24:21.269Z,20.30
2022-10-23T18:26:49.194Z,18.00
2022-10-23T18:29:18.040Z,19.30
2022-10-23T18:31:48.442Z,18.10
2022-10-23T18:34:23.707Z,15.00
2022-10-23T18:36:54.517Z,17.10
2022-10-23T18:39:26.179Z,9.10
2022-10-23T18:41:58.221Z,14.10
2022-10-23T18:44:31.288Z,16.70
2022-10-23T18:47:00.716Z,17.10
2022-10-23T18:49:28.909Z,18.70
2022-10-23T18:51:58.477Z,20.30
2022-10-23T18:54:30.039Z,15.60
2022-10-23T18:56:57.762Z,15.80
2022-10-23T18:59:25.544Z,19.90
2022-10-23T19:01:53.716Z,18.60
2022-10-23T19:04:22.103Z,19.20
2022-10-23T19:06:51.253Z,17.30
2022-10-23T19:09:20.346Z,15.90
2022-10-23T19:11:48.550Z,17.40
2022-10-23T19:14:16.759Z,16.10
2022-10-23T19:17:03.053Z,15.20
2022-10-23T19:19:43.254Z,20.60
2022-10-23T19:22:14.172Z,16.60
2022-10-23T19:24:49.308Z,15.90
2022-10-23T19:27:20.070Z,14.30
2022-10-23T19:29:51.809Z,15.80
2022-10-23T19:32:19.606Z,17.40
2022-10-23T19:34:47.510Z,15.30
2022-10-23T19:37:16.118Z,16.70
2022-10-23T19:39:43.985Z,13.80
2022-10-23T19:42:13.641Z,14.50
2022-10-23T19:44:41.954Z,16.60
2022-10-23T19:47:10.059Z,14.80
2022-10-23T19:49:38.581Z,16.60
2022-10-23T19:52:08.073Z,16.90
2022-10-23T19:54:36.105Z,20.20
2022-10-23T19:57:04.714Z,22.70
2022-10-23T19:59:36.521Z,20.80
2022-10-23T20:02:04.663Z,23.40
2022-10-23T20:04:32.534Z,24.90
2022-10-23T20:07:00.669Z,22.80
2022-10-23T20:09:28.480Z,16.30
2022-10-23T20:11:56.306Z,21.80
2022-10-23T20:14:24.065Z,17.90
2022-10-23T20:16:55.887Z,19.20
2022-10-23T20:19:24.138Z,17.40
2022-10-23T20:21:52.809Z,18.20
2022-10-23T20:24:22.784Z,17.20
2022-10-23T20:26:54.535Z,15.50
2022-10-23T20:29:26.901Z,15.50
2022-10-23T20:31:54.720Z,14.40
2022-10-23T20:34:22.489Z,15.80
2022-10-23T20:36:50.550Z,14.20
2022-10-23T20:39:25.767Z,15.30
2022-10-23T20:41:55.555Z,13.90
2022-10-23T20:44:24.504Z,15.00
2022-10-23T20:46:52.745Z,14.30
2022-10-23T20:49:22.098Z,14.80
2022-10-23T20:51:55.839Z,16.60
2022-10-23T20:54:26.990Z,18.00
2022-10-23T20:56:57.151Z,13.60
2022-10-23T20:59:25.485Z,10.60
2022-10-23T21:01:55.599Z,15.10
2022-10-23T21:04:27.628Z,14.30
2022-10-23T21:07:09.874Z,12.70
2022-10-23T21:09:39.504Z,12.00
2022-10-23T21:12:07.809Z,14.10
2022-10-23T21:14:36.469Z,13.30
2022-10-23T21:17:05.320Z,13.10
2022-10-23T21:19:33.093Z,12.70
2022-10-23T21:22:00.863Z,14.30
2022-10-23T21:24:28.603Z,14.50
2022-10-23T21:26:56.634Z,13.10
2022-10-23T21:29:24.394Z,12.90
2022-10-23T21:31:59.792Z,14.70
2022-10-23T21:34:28.369Z,12.80
2022-10-23T21:37:13.347Z,15.00
2022-10-23T21:39:44.040Z,13.10
2022-10-23T21:42:14.155Z,13.20
2022-10-23T21:44:42.057Z,16.30
2022-10-23T21:47:10.181Z,16.20
2022-10-23T21:49:37.996Z,15.40
2022-10-23T21:52:06.619Z,17.50
2022-10-23T21:54:34.373Z,17.50
2022-10-23T21:57:03.568Z,12.90
2022-10-23T21:59:33.150Z,16.10
2022-10-23T22:02:04.389Z,13.80
2022-10-23T22:04:32.376Z,14.30
2022-10-23T22:07:00.382Z,13.00
2022-10-23T22:09:28.903Z,17.50
2022-10-23T22:11:57.040Z,16.60
2022-10-23T22:14:24.705Z,16.80
2022-10-23T22:16:53.784Z,13.50
2022-10-23T22:19:23.490Z,15.30
2022-10-23T22:21:52.001Z,14.50
2022-10-23T22:24:20.195Z,15.70
2022-10-23T22:26:53.729Z,15.80
2022-10-23T22:29:26.710Z,15.40
2022-10-23T22:31:54.480Z,15.00
2022-10-23T22:34:48.389Z,14.50
2022-10-23T22:37:13.833Z,16.60
2022-10-23T22:39:41.952Z,14.70
2022-10-23T22:42:09.897Z,16.50
2022-10-23T22:44:37.708Z,16.70
2022-10-23T22:47:05.416Z,15.90
2022-10-23T22:49:33.114Z,14.90
2022-10-23T22:52:00.971Z,14.20
2022-10-23T22:54:30.706Z,13.40
2022-10-23T22:56:58.610Z,14.40
2022-10-23T22:59:26.572Z,15.90
2022-10-23T23:01:54.878Z,16.20
2022-10-23T23:04:38.992Z,15.40
2022-10-23T23:07:10.389Z,13.10
2022-10-23T23:09:41.604Z,13.10
2022-10-23T23:12:13.367Z,15.10
2022-10-23T23:14:42.575Z,16.20
2022-10-23T23:17:11.346Z,12.10
2022-10-23T23:19:39.488Z,12.80
2022-10-23T23:22:07.393Z,13.90
2022-10-23T23:24:35.210Z,14.30
2022-10-23T23:27:03.086Z,16.60
2022-10-23T23:29:31.985Z,21.50
2022-10-23T23:31:59.743Z,12.80
2022-10-23T23:34:29.010Z,16.40
2022-10-23T23:36:56.805Z,16.60
2022-10-23T23:39:26.220Z,19.10
2022-10-23T23:41:54.117Z,21.00
2022-10-23T23:44:21.932Z,20.80
2022-10-23T23:46:49.685Z,19.10
2022-10-23T23:49:17.348Z,17.40
2022-10-23T23:51:45.018Z,17.20
2022-10-23T23:54:12.721Z,21.30
2022-10-23T23:56:40.715Z,17.30
2022-10-23T23:59:08.502Z,19.60
